Impacts TAF Board
For situational awareness. Not to be used for flight planning purposes.
IDs:

KBWI - Baltimore-Washington, MD, US

Issued at 1127 UTC 21 Aug 2019
Updated at 1430 UTC 21 Aug 2019
Potential Impact None Slight Moderate High
Time<<22/03Z 22/04Z 22/05Z 22/06Z 22/07Z 22/08Z 22/09Z 22/10Z 22/11Z 22/12Z 22/13Z 22/14Z 22/15Z>>
Type PRVL PRVL PRVL PRVL PRVL PRVL PRVL PRVL PRVL PRVL PRVL PRVL PRVL
VIS >6 >6 >6 >6 >6 >6 >6 >6 >6 >6 >6 >6 >6
CIG 50 -- -- -- -- -- -- -- -- -- -- -- --
Cover BKN SCT SCT SCT SCT SCT SCT SCT SCT SCT SCT SCT SCT
FltCat VFR VFR VFR VFR VFR VFR VFR VFR VFR VFR VFR VFR VFR
WX -- -- -- -- -- -- -- -- -- -- -- -- --
WDir 220 VRB VRB VRB VRB VRB VRB VRB VRB VRB VRB VRB VRB
WSpd 5 3 3 3 3 3 3 3 3 3 3 3 3
WGst -- -- -- -- -- -- -- -- -- -- -- -- --
Raw TAF
KBWI 211127Z 2112/2218 VRB03KT P6SM FEW140 BKN250
  FM211500 22007KT P6SM SCT070 SCT200
  FM212000 22009KT P6SM VCTS BKN050CB
  FM220000 22005KT P6SM BKN050 BKN250
  FM220400 VRB03KT P6SM SCT060 SCT250


METAR Board
Radar Display
Forecast Discussion
For situational awareness. Not to be used for flight planning purposes.